sensor_id;sensor_type;location;lat;lon;timestamp;P1;durP1;ratioP1;P2;durP2;ratioP2
64459;SDS011;50828;53.756;21.140;2023-06-22T00:00:01;16.80;;;14.00;;
64459;SDS011;50828;53.756;21.140;2023-06-22T00:05:14;15.70;;;13.90;;
64459;SDS011;50828;53.756;21.140;2023-06-22T00:10:22;17.70;;;14.50;;
64459;SDS011;50828;53.756;21.140;2023-06-22T00:15:30;19.10;;;14.40;;
64459;SDS011;50828;53.756;21.140;2023-06-22T00:20:38;17.40;;;15.50;;
64459;SDS011;50828;53.756;21.140;2023-06-22T00:25:47;17.00;;;15.00;;
64459;SDS011;50828;53.756;21.140;2023-06-22T00:30:54;18.10;;;15.20;;
64459;SDS011;50828;53.756;21.140;2023-06-22T00:36:02;17.30;;;14.60;;
64459;SDS011;50828;53.756;21.140;2023-06-22T00:41:13;17.90;;;14.80;;
64459;SDS011;50828;53.756;21.140;2023-06-22T00:46:22;20.50;;;15.40;;
64459;SDS011;50828;53.756;21.140;2023-06-22T00:51:30;17.40;;;15.40;;
64459;SDS011;50828;53.756;21.140;2023-06-22T00:56:42;18.80;;;16.00;;
64459;SDS011;50828;53.756;21.140;2023-06-22T01:01:56;19.90;;;16.20;;
64459;SDS011;50828;53.756;21.140;2023-06-22T01:07:06;18.80;;;16.70;;
64459;SDS011;50828;53.756;21.140;2023-06-22T01:12:26;21.90;;;17.00;;
64459;SDS011;50828;53.756;21.140;2023-06-22T01:17:38;19.60;;;16.90;;
64459;SDS011;50828;53.756;21.140;2023-06-22T01:22:53;21.50;;;16.30;;
64459;SDS011;50828;53.756;21.140;2023-06-22T01:28:16;20.50;;;16.50;;
64459;SDS011;50828;53.756;21.140;2023-06-22T01:33:29;20.10;;;16.50;;
64459;SDS011;50828;53.756;21.140;2023-06-22T01:38:39;20.00;;;16.40;;
64459;SDS011;50828;53.756;21.140;2023-06-22T01:43:47;20.00;;;16.70;;
64459;SDS011;50828;53.756;21.140;2023-06-22T01:48:58;19.80;;;17.50;;
64459;SDS011;50828;53.756;21.140;2023-06-22T01:54:09;24.10;;;17.70;;
64459;SDS011;50828;53.756;21.140;2023-06-22T01:59:24;21.60;;;18.70;;
64459;SDS011;50828;53.756;21.140;2023-06-22T02:04:38;27.00;;;19.30;;
64459;SDS011;50828;53.756;21.140;2023-06-22T02:09:50;23.90;;;19.50;;
64459;SDS011;50828;53.756;21.140;2023-06-22T02:15:00;23.30;;;20.30;;
64459;SDS011;50828;53.756;21.140;2023-06-22T02:20:11;22.70;;;19.90;;
64459;SDS011;50828;53.756;21.140;2023-06-22T02:30:26;24.80;;;20.70;;
64459;SDS011;50828;53.756;21.140;2023-06-22T02:35:35;26.10;;;21.20;;
64459;SDS011;50828;53.756;21.140;2023-06-22T02:40:44;23.50;;;21.00;;
64459;SDS011;50828;53.756;21.140;2023-06-22T02:45:53;20.10;;;17.80;;
64459;SDS011;50828;53.756;21.140;2023-06-22T02:51:01;21.70;;;17.00;;
64459;SDS011;50828;53.756;21.140;2023-06-22T02:56:10;18.70;;;14.90;;
64459;SDS011;50828;53.756;21.140;2023-06-22T03:01:18;16.80;;;13.90;;
64459;SDS011;50828;53.756;21.140;2023-06-22T03:06:28;18.70;;;13.00;;
64459;SDS011;50828;53.756;21.140;2023-06-22T03:11:35;15.90;;;12.40;;
64459;SDS011;50828;53.756;21.140;2023-06-22T03:16:43;14.30;;;12.30;;
64459;SDS011;50828;53.756;21.140;2023-06-22T03:21:51;15.00;;;12.50;;
64459;SDS011;50828;53.756;21.140;2023-06-22T03:26:58;16.00;;;13.00;;
64459;SDS011;50828;53.756;21.140;2023-06-22T03:32:09;15.20;;;12.00;;
64459;SDS011;50828;53.756;21.140;2023-06-22T03:37:17;15.60;;;12.10;;
64459;SDS011;50828;53.756;21.140;2023-06-22T03:42:25;14.50;;;11.40;;
64459;SDS011;50828;53.756;21.140;2023-06-22T03:47:33;16.40;;;11.30;;
64459;SDS011;50828;53.756;21.140;2023-06-22T03:52:41;13.90;;;11.50;;
64459;SDS011;50828;53.756;21.140;2023-06-22T03:57:49;14.90;;;11.50;;
64459;SDS011;50828;53.756;21.140;2023-06-22T04:02:58;13.70;;;10.90;;
64459;SDS011;50828;53.756;21.140;2023-06-22T04:08:06;13.70;;;10.80;;
64459;SDS011;50828;53.756;21.140;2023-06-22T04:13:13;12.60;;;10.00;;
64459;SDS011;50828;53.756;21.140;2023-06-22T04:18:21;13.40;;;10.80;;
64459;SDS011;50828;53.756;21.140;2023-06-22T04:23:28;14.20;;;10.20;;
64459;SDS011;50828;53.756;21.140;2023-06-22T04:28:36;14.00;;;11.00;;
64459;SDS011;50828;53.756;21.140;2023-06-22T04:33:43;14.80;;;11.40;;
64459;SDS011;50828;53.756;21.140;2023-06-22T04:38:50;13.90;;;10.60;;
64459;SDS011;50828;53.756;21.140;2023-06-22T04:43:59;14.30;;;11.00;;
64459;SDS011;50828;53.756;21.140;2023-06-22T04:49:09;24.10;;;14.50;;
64459;SDS011;50828;53.756;21.140;2023-06-22T04:54:16;19.90;;;14.10;;
64459;SDS011;50828;53.756;21.140;2023-06-22T04:59:23;19.90;;;13.20;;
64459;SDS011;50828;53.756;21.140;2023-06-22T05:04:33;14.80;;;11.20;;
64459;SDS011;50828;53.756;21.140;2023-06-22T05:09:43;17.60;;;13.30;;
64459;SDS011;50828;53.756;21.140;2023-06-22T05:14:50;17.90;;;13.10;;
64459;SDS011;50828;53.756;21.140;2023-06-22T05:19:58;17.40;;;14.30;;
64459;SDS011;50828;53.756;21.140;2023-06-22T05:25:07;17.70;;;13.10;;
64459;SDS011;50828;53.756;21.140;2023-06-22T05:30:16;18.00;;;12.90;;
64459;SDS011;50828;53.756;21.140;2023-06-22T05:35:24;17.90;;;11.60;;
64459;SDS011;50828;53.756;21.140;2023-06-22T05:40:33;16.50;;;12.90;;
64459;SDS011;50828;53.756;21.140;2023-06-22T05:45:40;17.10;;;12.30;;
64459;SDS011;50828;53.756;21.140;2023-06-22T05:50:48;15.30;;;11.50;;
64459;SDS011;50828;53.756;21.140;2023-06-22T05:55:56;14.60;;;9.90;;
64459;SDS011;50828;53.756;21.140;2023-06-22T06:01:04;16.00;;;11.70;;
64459;SDS011;50828;53.756;21.140;2023-06-22T06:06:11;13.70;;;11.60;;
64459;SDS011;50828;53.756;21.140;2023-06-22T06:11:18;13.00;;;10.20;;
64459;SDS011;50828;53.756;21.140;2023-06-22T06:16:26;11.20;;;9.30;;
64459;SDS011;50828;53.756;21.140;2023-06-22T06:21:33;13.70;;;10.20;;
64459;SDS011;50828;53.756;21.140;2023-06-22T06:26:40;14.60;;;10.50;;
64459;SDS011;50828;53.756;21.140;2023-06-22T06:31:48;12.20;;;8.80;;
64459;SDS011;50828;53.756;21.140;2023-06-22T06:36:57;14.80;;;11.60;;
64459;SDS011;50828;53.756;21.140;2023-06-22T06:42:05;8.40;;;7.50;;
64459;SDS011;50828;53.756;21.140;2023-06-22T06:47:13;15.00;;;9.50;;
64459;SDS011;50828;53.756;21.140;2023-06-22T06:52:20;18.50;;;9.10;;
64459;SDS011;50828;53.756;21.140;2023-06-22T06:57:27;14.80;;;9.70;;
64459;SDS011;50828;53.756;21.140;2023-06-22T07:02:36;13.40;;;9.60;;
64459;SDS011;50828;53.756;21.140;2023-06-22T07:07:45;13.70;;;9.70;;
64459;SDS011;50828;53.756;21.140;2023-06-22T07:12:52;13.00;;;9.90;;
64459;SDS011;50828;53.756;21.140;2023-06-22T07:18:01;16.60;;;10.20;;
64459;SDS011;50828;53.756;21.140;2023-06-22T07:23:08;14.60;;;10.00;;
64459;SDS011;50828;53.756;21.140;2023-06-22T07:28:16;13.70;;;9.30;;
64459;SDS011;50828;53.756;21.140;2023-06-22T07:33:23;14.40;;;11.10;;
64459;SDS011;50828;53.756;21.140;2023-06-22T07:38:31;15.00;;;10.20;;
64459;SDS011;50828;53.756;21.140;2023-06-22T07:43:39;12.30;;;8.30;;
64459;SDS011;50828;53.756;21.140;2023-06-22T07:48:46;12.90;;;7.70;;
64459;SDS011;50828;53.756;21.140;2023-06-22T07:53:56;10.60;;;7.80;;
64459;SDS011;50828;53.756;21.140;2023-06-22T07:59:04;12.50;;;8.70;;
64459;SDS011;50828;53.756;21.140;2023-06-22T08:04:12;11.60;;;8.10;;
64459;SDS011;50828;53.756;21.140;2023-06-22T08:09:20;11.90;;;8.10;;
64459;SDS011;50828;53.756;21.140;2023-06-22T08:14:27;11.20;;;7.70;;
64459;SDS011;50828;53.756;21.140;2023-06-22T08:19:35;10.30;;;7.90;;
64459;SDS011;50828;53.756;21.140;2023-06-22T08:24:44;11.00;;;8.00;;
64459;SDS011;50828;53.756;21.140;2023-06-22T08:29:52;9.90;;;7.70;;
64459;SDS011;50828;53.756;21.140;2023-06-22T08:35:01;11.90;;;8.00;;
64459;SDS011;50828;53.756;21.140;2023-06-22T08:40:10;10.40;;;8.30;;
64459;SDS011;50828;53.756;21.140;2023-06-22T08:45:18;13.10;;;8.50;;
64459;SDS011;50828;53.756;21.140;2023-06-22T08:50:29;13.20;;;8.50;;
64459;SDS011;50828;53.756;21.140;2023-06-22T08:55:37;12.40;;;8.60;;
64459;SDS011;50828;53.756;21.140;2023-06-22T09:00:44;12.60;;;8.00;;
64459;SDS011;50828;53.756;21.140;2023-06-22T09:05:52;12.50;;;8.80;;
64459;SDS011;50828;53.756;21.140;2023-06-22T09:10:59;14.10;;;8.40;;
64459;SDS011;50828;53.756;21.140;2023-06-22T09:16:07;10.40;;;8.00;;
64459;SDS011;50828;53.756;21.140;2023-06-22T09:21:15;12.60;;;8.50;;
64459;SDS011;50828;53.756;21.140;2023-06-22T09:26:23;11.60;;;8.00;;
64459;SDS011;50828;53.756;21.140;2023-06-22T09:31:30;11.90;;;8.60;;
64459;SDS011;50828;53.756;21.140;2023-06-22T09:36:37;11.70;;;8.30;;
64459;SDS011;50828;53.756;21.140;2023-06-22T09:41:46;9.20;;;7.80;;
64459;SDS011;50828;53.756;21.140;2023-06-22T09:46:54;10.60;;;8.10;;
64459;SDS011;50828;53.756;21.140;2023-06-22T09:52:04;10.60;;;7.90;;
64459;SDS011;50828;53.756;21.140;2023-06-22T09:57:12;13.00;;;7.70;;
64459;SDS011;50828;53.756;21.140;2023-06-22T10:02:19;9.90;;;7.20;;
64459;SDS011;50828;53.756;21.140;2023-06-22T10:07:27;9.70;;;6.10;;
64459;SDS011;50828;53.756;21.140;2023-06-22T10:12:35;9.50;;;5.90;;
64459;SDS011;50828;53.756;21.140;2023-06-22T10:17:46;7.40;;;5.30;;
64459;SDS011;50828;53.756;21.140;2023-06-22T10:22:54;8.30;;;5.60;;
64459;SDS011;50828;53.756;21.140;2023-06-22T10:28:03;7.90;;;4.80;;
64459;SDS011;50828;53.756;21.140;2023-06-22T10:33:11;7.00;;;4.90;;
64459;SDS011;50828;53.756;21.140;2023-06-22T10:38:19;8.30;;;4.30;;
64459;SDS011;50828;53.756;21.140;2023-06-22T10:43:27;6.60;;;3.70;;
64459;SDS011;50828;53.756;21.140;2023-06-22T10:48:35;5.80;;;3.40;;
64459;SDS011;50828;53.756;21.140;2023-06-22T10:53:44;6.20;;;3.80;;
64459;SDS011;50828;53.756;21.140;2023-06-22T10:58:52;9.00;;;3.70;;
64459;SDS011;50828;53.756;21.140;2023-06-22T11:03:59;6.20;;;3.60;;
64459;SDS011;50828;53.756;21.140;2023-06-22T11:09:07;4.90;;;3.30;;
64459;SDS011;50828;53.756;21.140;2023-06-22T11:14:28;5.70;;;3.20;;
64459;SDS011;50828;53.756;21.140;2023-06-22T11:19:37;5.40;;;3.40;;
64459;SDS011;50828;53.756;21.140;2023-06-22T11:24:45;10.90;;;3.00;;
64459;SDS011;50828;53.756;21.140;2023-06-22T11:29:52;7.10;;;3.30;;
64459;SDS011;50828;53.756;21.140;2023-06-22T11:34:59;4.90;;;3.20;;
64459;SDS011;50828;53.756;21.140;2023-06-22T11:40:08;5.60;;;3.00;;
64459;SDS011;50828;53.756;21.140;2023-06-22T11:45:17;4.70;;;2.60;;
64459;SDS011;50828;53.756;21.140;2023-06-22T11:50:24;4.10;;;2.90;;
64459;SDS011;50828;53.756;21.140;2023-06-22T11:55:34;4.90;;;2.70;;
64459;SDS011;50828;53.756;21.140;2023-06-22T12:00:42;3.80;;;2.50;;
64459;SDS011;50828;53.756;21.140;2023-06-22T12:05:54;3.10;;;2.00;;
64459;SDS011;50828;53.756;21.140;2023-06-22T12:11:02;4.40;;;1.90;;
64459;SDS011;50828;53.756;21.140;2023-06-22T12:16:09;4.90;;;2.10;;
64459;SDS011;50828;53.756;21.140;2023-06-22T12:21:17;5.20;;;1.90;;
64459;SDS011;50828;53.756;21.140;2023-06-22T12:26:24;3.20;;;2.00;;
64459;SDS011;50828;53.756;21.140;2023-06-22T12:31:31;2.90;;;1.70;;
64459;SDS011;50828;53.756;21.140;2023-06-22T12:36:39;4.00;;;2.00;;
64459;SDS011;50828;53.756;21.140;2023-06-22T12:41:46;3.70;;;2.00;;
64459;SDS011;50828;53.756;21.140;2023-06-22T12:46:53;3.80;;;1.90;;
64459;SDS011;50828;53.756;21.140;2023-06-22T12:52:01;5.30;;;1.90;;
64459;SDS011;50828;53.756;21.140;2023-06-22T12:57:09;4.40;;;1.90;;
64459;SDS011;50828;53.756;21.140;2023-06-22T13:02:16;4.00;;;1.80;;
64459;SDS011;50828;53.756;21.140;2023-06-22T13:07:24;3.30;;;1.90;;
64459;SDS011;50828;53.756;21.140;2023-06-22T13:12:33;4.10;;;1.90;;
64459;SDS011;50828;53.756;21.140;2023-06-22T13:17:40;3.10;;;2.00;;
64459;SDS011;50828;53.756;21.140;2023-06-22T13:22:48;3.30;;;1.70;;
64459;SDS011;50828;53.756;21.140;2023-06-22T13:27:55;4.30;;;2.00;;
64459;SDS011;50828;53.756;21.140;2023-06-22T13:33:05;4.40;;;2.40;;
64459;SDS011;50828;53.756;21.140;2023-06-22T13:38:13;3.50;;;2.30;;
64459;SDS011;50828;53.756;21.140;2023-06-22T13:43:21;4.40;;;1.90;;
64459;SDS011;50828;53.756;21.140;2023-06-22T13:48:29;5.20;;;1.90;;
64459;SDS011;50828;53.756;21.140;2023-06-22T13:53:36;2.20;;;1.50;;
64459;SDS011;50828;53.756;21.140;2023-06-22T13:58:43;4.80;;;1.80;;
64459;SDS011;50828;53.756;21.140;2023-06-22T14:03:51;3.30;;;1.70;;
64459;SDS011;50828;53.756;21.140;2023-06-22T14:08:59;4.50;;;2.30;;
64459;SDS011;50828;53.756;21.140;2023-06-22T14:14:07;4.10;;;1.90;;
64459;SDS011;50828;53.756;21.140;2023-06-22T14:19:14;4.30;;;1.70;;
64459;SDS011;50828;53.756;21.140;2023-06-22T14:24:21;2.50;;;1.40;;
64459;SDS011;50828;53.756;21.140;2023-06-22T14:29:33;3.00;;;1.60;;
64459;SDS011;50828;53.756;21.140;2023-06-22T14:34:40;2.30;;;1.40;;
64459;SDS011;50828;53.756;21.140;2023-06-22T14:39:47;3.20;;;1.40;;
64459;SDS011;50828;53.756;21.140;2023-06-22T14:44:55;5.30;;;1.80;;
64459;SDS011;50828;53.756;21.140;2023-06-22T14:50:03;3.10;;;1.70;;
64459;SDS011;50828;53.756;21.140;2023-06-22T14:55:11;3.90;;;1.40;;
64459;SDS011;50828;53.756;21.140;2023-06-22T15:00:20;3.30;;;1.60;;
64459;SDS011;50828;53.756;21.140;2023-06-22T15:05:27;2.50;;;1.60;;
64459;SDS011;50828;53.756;21.140;2023-06-22T15:10:34;4.00;;;1.50;;
64459;SDS011;50828;53.756;21.140;2023-06-22T15:15:42;3.30;;;1.50;;
64459;SDS011;50828;53.756;21.140;2023-06-22T15:20:50;2.10;;;1.10;;
64459;SDS011;50828;53.756;21.140;2023-06-22T15:25:58;2.80;;;1.20;;
64459;SDS011;50828;53.756;21.140;2023-06-22T15:31:06;4.30;;;1.30;;
64459;SDS011;50828;53.756;21.140;2023-06-22T15:36:14;4.60;;;1.80;;
64459;SDS011;50828;53.756;21.140;2023-06-22T15:41:21;5.60;;;1.40;;
64459;SDS011;50828;53.756;21.140;2023-06-22T15:46:32;2.30;;;1.30;;
64459;SDS011;50828;53.756;21.140;2023-06-22T15:51:39;3.60;;;1.90;;
64459;SDS011;50828;53.756;21.140;2023-06-22T15:56:47;2.50;;;1.50;;
64459;SDS011;50828;53.756;21.140;2023-06-22T16:01:54;2.30;;;1.40;;
64459;SDS011;50828;53.756;21.140;2023-06-22T16:07:02;3.30;;;1.80;;
64459;SDS011;50828;53.756;21.140;2023-06-22T16:12:10;3.40;;;2.10;;
64459;SDS011;50828;53.756;21.140;2023-06-22T16:17:18;3.60;;;1.70;;
64459;SDS011;50828;53.756;21.140;2023-06-22T16:22:26;3.20;;;1.90;;
64459;SDS011;50828;53.756;21.140;2023-06-22T16:27:33;5.20;;;2.90;;
64459;SDS011;50828;53.756;21.140;2023-06-22T16:32:50;4.80;;;1.90;;
64459;SDS011;50828;53.756;21.140;2023-06-22T16:38:02;5.40;;;2.50;;
64459;SDS011;50828;53.756;21.140;2023-06-22T16:43:10;3.60;;;2.10;;
64459;SDS011;50828;53.756;21.140;2023-06-22T16:48:17;3.40;;;1.80;;
64459;SDS011;50828;53.756;21.140;2023-06-22T16:53:25;3.90;;;1.90;;
64459;SDS011;50828;53.756;21.140;2023-06-22T16:58:33;4.50;;;1.70;;
64459;SDS011;50828;53.756;21.140;2023-06-22T17:03:43;3.00;;;1.70;;
64459;SDS011;50828;53.756;21.140;2023-06-22T17:08:57;3.90;;;2.20;;
64459;SDS011;50828;53.756;21.140;2023-06-22T17:14:07;5.20;;;1.60;;
64459;SDS011;50828;53.756;21.140;2023-06-22T17:19:15;4.20;;;1.90;;
64459;SDS011;50828;53.756;21.140;2023-06-22T17:24:24;3.20;;;1.90;;
64459;SDS011;50828;53.756;21.140;2023-06-22T17:29:31;3.60;;;2.20;;
64459;SDS011;50828;53.756;21.140;2023-06-22T17:34:39;3.00;;;1.90;;
64459;SDS011;50828;53.756;21.140;2023-06-22T17:39:46;8.30;;;6.00;;
64459;SDS011;50828;53.756;21.140;2023-06-22T17:45:04;20.50;;;13.70;;
64459;SDS011;50828;53.756;21.140;2023-06-22T17:50:23;16.80;;;12.70;;
64459;SDS011;50828;53.756;21.140;2023-06-22T17:55:31;13.60;;;9.60;;
64459;SDS011;50828;53.756;21.140;2023-06-22T18:00:40;9.20;;;6.10;;
64459;SDS011;50828;53.756;21.140;2023-06-22T18:05:48;6.90;;;4.40;;
64459;SDS011;50828;53.756;21.140;2023-06-22T18:10:56;7.70;;;3.80;;
64459;SDS011;50828;53.756;21.140;2023-06-22T18:16:05;5.40;;;2.40;;
64459;SDS011;50828;53.756;21.140;2023-06-22T18:21:15;4.50;;;2.10;;
64459;SDS011;50828;53.756;21.140;2023-06-22T18:26:23;4.80;;;2.10;;
64459;SDS011;50828;53.756;21.140;2023-06-22T18:31:30;3.40;;;1.90;;
64459;SDS011;50828;53.756;21.140;2023-06-22T18:36:41;4.20;;;2.30;;
64459;SDS011;50828;53.756;21.140;2023-06-22T18:41:50;4.00;;;2.80;;
64459;SDS011;50828;53.756;21.140;2023-06-22T18:47:01;5.30;;;3.10;;
64459;SDS011;50828;53.756;21.140;2023-06-22T18:52:12;6.30;;;2.50;;
64459;SDS011;50828;53.756;21.140;2023-06-22T18:57:22;4.70;;;2.90;;
64459;SDS011;50828;53.756;21.140;2023-06-22T19:08:04;7.60;;;4.00;;
64459;SDS011;50828;53.756;21.140;2023-06-22T19:13:26;8.00;;;3.40;;
64459;SDS011;50828;53.756;21.140;2023-06-22T19:18:35;7.30;;;3.70;;
64459;SDS011;50828;53.756;21.140;2023-06-22T19:23:44;6.40;;;3.20;;
64459;SDS011;50828;53.756;21.140;2023-06-22T19:28:52;9.40;;;3.20;;
64459;SDS011;50828;53.756;21.140;2023-06-22T19:34:02;7.70;;;3.10;;
64459;SDS011;50828;53.756;21.140;2023-06-22T19:39:10;7.00;;;3.00;;
64459;SDS011;50828;53.756;21.140;2023-06-22T19:44:18;5.40;;;3.10;;
64459;SDS011;50828;53.756;21.140;2023-06-22T19:49:25;5.70;;;3.20;;
64459;SDS011;50828;53.756;21.140;2023-06-22T19:54:32;4.00;;;2.70;;
64459;SDS011;50828;53.756;21.140;2023-06-22T19:59:40;6.30;;;2.80;;
64459;SDS011;50828;53.756;21.140;2023-06-22T20:04:49;8.00;;;3.30;;
64459;SDS011;50828;53.756;21.140;2023-06-22T20:10:07;5.90;;;2.80;;
64459;SDS011;50828;53.756;21.140;2023-06-22T20:15:23;10.70;;;3.00;;
64459;SDS011;50828;53.756;21.140;2023-06-22T20:20:32;8.80;;;3.10;;
64459;SDS011;50828;53.756;21.140;2023-06-22T20:25:40;5.00;;;3.10;;
64459;SDS011;50828;53.756;21.140;2023-06-22T20:36:16;4.70;;;3.20;;
64459;SDS011;50828;53.756;21.140;2023-06-22T20:41:27;8.00;;;4.00;;
64459;SDS011;50828;53.756;21.140;2023-06-22T20:46:35;6.70;;;3.90;;
64459;SDS011;50828;53.756;21.140;2023-06-22T20:51:42;6.60;;;3.90;;
64459;SDS011;50828;53.756;21.140;2023-06-22T20:56:50;6.80;;;3.80;;
64459;SDS011;50828;53.756;21.140;2023-06-22T21:01:57;7.20;;;3.30;;
64459;SDS011;50828;53.756;21.140;2023-06-22T21:07:05;5.70;;;3.60;;
64459;SDS011;50828;53.756;21.140;2023-06-22T21:12:12;7.10;;;3.60;;
64459;SDS011;50828;53.756;21.140;2023-06-22T21:17:20;4.60;;;3.40;;
64459;SDS011;50828;53.756;21.140;2023-06-22T21:22:29;7.80;;;3.80;;
64459;SDS011;50828;53.756;21.140;2023-06-22T21:27:38;6.40;;;3.90;;
64459;SDS011;50828;53.756;21.140;2023-06-22T21:32:46;7.80;;;4.60;;
64459;SDS011;50828;53.756;21.140;2023-06-22T21:37:54;6.30;;;4.10;;
64459;SDS011;50828;53.756;21.140;2023-06-22T21:43:02;6.10;;;4.10;;
64459;SDS011;50828;53.756;21.140;2023-06-22T21:48:10;6.90;;;3.80;;
64459;SDS011;50828;53.756;21.140;2023-06-22T21:53:17;6.60;;;4.00;;
64459;SDS011;50828;53.756;21.140;2023-06-22T21:58:25;6.50;;;4.00;;
64459;SDS011;50828;53.756;21.140;2023-06-22T22:03:32;8.30;;;4.10;;
64459;SDS011;50828;53.756;21.140;2023-06-22T22:08:39;8.00;;;4.10;;
64459;SDS011;50828;53.756;21.140;2023-06-22T22:13:46;7.10;;;4.30;;
64459;SDS011;50828;53.756;21.140;2023-06-22T22:18:54;8.00;;;4.30;;
64459;SDS011;50828;53.756;21.140;2023-06-22T22:24:02;6.50;;;4.00;;
64459;SDS011;50828;53.756;21.140;2023-06-22T22:29:10;11.90;;;4.40;;
64459;SDS011;50828;53.756;21.140;2023-06-22T22:34:20;6.40;;;3.70;;
64459;SDS011;50828;53.756;21.140;2023-06-22T22:39:32;8.00;;;4.50;;
64459;SDS011;50828;53.756;21.140;2023-06-22T22:44:42;8.90;;;3.90;;
64459;SDS011;50828;53.756;21.140;2023-06-22T22:49:50;6.90;;;4.30;;
64459;SDS011;50828;53.756;21.140;2023-06-22T22:54:57;8.80;;;3.90;;
64459;SDS011;50828;53.756;21.140;2023-06-22T23:00:06;6.90;;;4.30;;
64459;SDS011;50828;53.756;21.140;2023-06-22T23:05:16;9.90;;;5.40;;
64459;SDS011;50828;53.756;21.140;2023-06-22T23:10:23;11.10;;;6.00;;
64459;SDS011;50828;53.756;21.140;2023-06-22T23:15:31;11.00;;;5.00;;
64459;SDS011;50828;53.756;21.140;2023-06-22T23:20:39;10.90;;;6.10;;
64459;SDS011;50828;53.756;21.140;2023-06-22T23:25:46;8.90;;;5.60;;
64459;SDS011;50828;53.756;21.140;2023-06-22T23:30:54;8.70;;;5.30;;
64459;SDS011;50828;53.756;21.140;2023-06-22T23:36:02;10.80;;;6.20;;
64459;SDS011;50828;53.756;21.140;2023-06-22T23:41:10;9.60;;;5.40;;
64459;SDS011;50828;53.756;21.140;2023-06-22T23:46:17;10.10;;;5.60;;
64459;SDS011;50828;53.756;21.140;2023-06-22T23:51:25;9.30;;;5.20;;
64459;SDS011;50828;53.756;21.140;2023-06-22T23:56:33;16.70;;;5.60;;
